Time;durP1;ratioP1;P1;durP2;ratioP2;P2;SDS_P1;SDS_P2;PMS_P1;PMS_P2;Temp;Humidity;BMP_temperature;BMP_pressure;BME280_temperature;BME280_humidity;BME280_pressure;Samples;Min_cycle;Max_cycle;Signal;HPM_P1;HPM_P2
2023/08/13 00:01:21;;;;;;;7.82;2.65;;;17.10;99.90;;;;;;5051058;28;20482;-65
2023/08/13 00:03:47;;;;;;;13.85;2.88;;;17.20;99.90;;;;;;5051482;28;20036;-64
2023/08/13 00:06:12;;;;;;;9.93;2.67;;;17.20;99.90;;;;;;5050934;28;20028;-65
2023/08/13 00:08:38;;;;;;;7.05;2.50;;;17.20;99.90;;;;;;5041792;28;20032;-65
2023/08/13 00:11:09;;;;;;;10.27;2.35;;;17.20;99.90;;;;;;5042876;28;20446;-65
2023/08/13 00:13:35;;;;;;;14.20;3.22;;;17.20;99.90;;;;;;5051255;28;20095;-64
2023/08/13 00:16:00;;;;;;;10.02;2.90;;;17.20;99.90;;;;;;5050529;28;20052;-65
2023/08/13 00:18:28;;;;;;;10.85;2.38;;;17.20;99.90;;;;;;5051078;28;20049;-65
2023/08/13 00:20:53;;;;;;;7.05;2.58;;;17.20;99.90;;;;;;5042196;28;20480;-65
2023/08/13 00:23:19;;;;;;;9.30;2.70;;;17.20;99.90;;;;;;5049646;28;20083;-65
2023/08/13 00:25:45;;;;;;;7.03;2.65;;;17.30;99.90;;;;;;5046307;28;20545;-65
2023/08/13 00:28:10;;;;;;;10.32;3.25;;;17.30;99.90;;;;;;5078191;22;20032;-65
2023/08/13 00:30:36;;;;;;;9.57;2.97;;;17.30;99.90;;;;;;5079447;28;20162;-66
2023/08/13 00:33:01;;;;;;;10.77;2.60;;;17.30;99.90;;;;;;5086706;28;20429;-66
2023/08/13 00:35:27;;;;;;;15.07;2.65;;;17.40;99.90;;;;;;5072389;28;20037;-66
2023/08/13 00:37:53;;;;;;;10.63;2.78;;;17.40;99.90;;;;;;5088562;28;20024;-65
2023/08/13 00:40:18;;;;;;;11.23;2.97;;;17.40;99.90;;;;;;5071530;28;20039;-65
2023/08/13 00:42:44;;;;;;;7.30;2.60;;;17.40;99.90;;;;;;5061861;28;20036;-66
2023/08/13 00:45:10;;;;;;;13.82;3.45;;;17.50;99.90;;;;;;5082176;28;20041;-66
2023/08/13 00:47:37;;;;;;;13.18;3.22;;;17.50;99.90;;;;;;5090265;28;20048;-66
2023/08/13 00:50:04;;;;;;;6.65;2.60;;;17.50;99.90;;;;;;5089932;28;20494;-66
2023/08/13 00:52:30;;;;;;;10.27;3.03;;;17.50;99.90;;;;;;5079665;28;20115;-65
2023/08/13 00:54:56;;;;;;;9.35;2.80;;;17.50;99.90;;;;;;5079697;28;20461;-66
2023/08/13 00:57:22;;;;;;;10.70;3.25;;;17.50;99.90;;;;;;5067891;28;20048;-66
2023/08/13 00:59:50;;;;;;;9.20;3.03;;;17.50;99.90;;;;;;5064782;28;20406;-66
2023/08/13 01:02:17;;;;;;;12.05;3.58;;;17.50;99.90;;;;;;5083661;28;20040;-66
2023/08/13 01:04:43;;;;;;;10.50;2.97;;;17.50;99.90;;;;;;5090663;28;20456;-66
2023/08/13 01:07:32;;;;;;;9.70;3.08;;;17.40;99.90;;;;;;5078937;28;20051;-66
2023/08/13 01:10:11;;;;;;;10.88;2.80;;;17.50;99.90;;;;;;5060718;28;20033;-66
2023/08/13 01:13:10;;;;;;;11.52;2.78;;;17.50;99.90;;;;;;5066237;28;20036;-66
2023/08/13 01:15:41;;;;;;;12.23;2.97;;;17.50;99.90;;;;;;5076073;28;20032;-66
2023/08/13 01:18:07;;;;;;;13.40;3.33;;;17.40;99.90;;;;;;5082648;28;20052;-66
2023/08/13 01:20:36;;;;;;;8.75;2.75;;;17.40;99.90;;;;;;5083283;28;20389;-66
2023/08/13 01:23:02;;;;;;;11.80;3.10;;;17.40;99.90;;;;;;5063934;28;20636;-66
2023/08/13 01:25:28;;;;;;;9.65;2.75;;;17.50;99.90;;;;;;5068550;28;20056;-65
2023/08/13 01:27:58;;;;;;;17.27;3.58;;;17.50;99.90;;;;;;5074902;28;20070;-65
2023/08/13 01:30:46;;;;;;;9.65;3.65;;;17.50;99.90;;;;;;5084233;28;20032;-65
2023/08/13 01:33:31;;;;;;;9.93;3.08;;;17.50;99.90;;;;;;5077510;28;20551;-65
2023/08/13 01:35:59;;;;;;;14.43;3.38;;;17.40;99.90;;;;;;5077700;28;20371;-65
2023/08/13 01:38:25;;;;;;;11.30;2.92;;;17.40;99.90;;;;;;5076974;28;20170;-65
2023/08/13 01:40:50;;;;;;;10.88;3.30;;;17.40;99.90;;;;;;5063280;28;20025;-66
2023/08/13 01:43:17;;;;;;;9.15;3.25;;;17.30;99.90;;;;;;5073304;28;20040;-65
2023/08/13 01:45:43;;;;;;;11.65;3.53;;;17.40;99.90;;;;;;5073918;28;20501;-65
2023/08/13 01:48:09;;;;;;;11.57;3.28;;;17.30;99.90;;;;;;5063973;28;20060;-65
2023/08/13 01:50:40;;;;;;;9.57;2.92;;;17.30;99.90;;;;;;5069126;28;20040;-65
2023/08/13 01:53:06;;;;;;;13.88;3.95;;;17.30;99.90;;;;;;5078360;28;20044;-65
2023/08/13 01:55:32;;;;;;;12.75;3.03;;;17.30;99.90;;;;;;5067592;28;20052;-65
2023/08/13 01:57:57;;;;;;;13.60;3.55;;;17.20;99.90;;;;;;5068114;28;20036;-65
2023/08/13 02:00:23;;;;;;;11.23;2.90;;;17.20;99.90;;;;;;5066252;28;20044;-65
2023/08/13 02:02:49;;;;;;;9.48;2.83;;;17.20;99.90;;;;;;5068419;28;20028;-65
2023/08/13 02:05:15;;;;;;;10.57;3.38;;;17.20;99.90;;;;;;5069665;28;20024;-66
2023/08/13 02:07:40;;;;;;;10.82;2.80;;;17.20;99.90;;;;;;5071404;28;20478;-65
2023/08/13 02:10:06;;;;;;;13.88;3.70;;;17.20;99.90;;;;;;5074268;28;20036;-65
2023/08/13 02:12:32;;;;;;;15.05;3.17;;;17.10;99.90;;;;;;5068803;28;20037;-65
2023/08/13 02:14:58;;;;;;;10.65;3.13;;;17.10;99.90;;;;;;5073291;28;20028;-65
2023/08/13 02:17:23;;;;;;;14.30;4.00;;;17.10;99.90;;;;;;5073261;28;20040;-65
2023/08/13 02:19:49;;;;;;;9.57;2.85;;;17.10;99.90;;;;;;5072376;28;20059;-65
2023/08/13 02:22:14;;;;;;;9.23;3.40;;;17.10;99.90;;;;;;5071873;28;20034;-65
2023/08/13 02:24:40;;;;;;;9.43;3.00;;;17.00;99.90;;;;;;5085318;28;20036;-65
2023/08/13 02:27:06;;;;;;;8.25;3.10;;;17.10;99.90;;;;;;5072416;28;20554;-65
2023/08/13 02:29:31;;;;;;;10.75;3.13;;;17.10;99.90;;;;;;5067628;28;20116;-65
2023/08/13 02:31:57;;;;;;;13.63;3.40;;;17.00;99.90;;;;;;5080840;28;20036;-65
2023/08/13 02:34:23;;;;;;;12.05;4.13;;;17.00;99.90;;;;;;5075324;28;20486;-65
2023/08/13 02:36:49;;;;;;;8.48;3.10;;;17.00;99.90;;;;;;5068485;28;20029;-65
2023/08/13 02:39:15;;;;;;;11.60;3.22;;;16.90;99.90;;;;;;5080181;28;20077;-65
2023/08/13 02:41:40;;;;;;;13.63;3.72;;;16.90;99.90;;;;;;5080405;28;20032;-65
2023/08/13 02:44:06;;;;;;;9.48;2.85;;;16.90;99.90;;;;;;5071307;28;20040;-65
2023/08/13 02:46:32;;;;;;;11.40;3.50;;;16.90;99.90;;;;;;5068390;28;20040;-66
2023/08/13 02:48:57;;;;;;;11.63;3.25;;;16.90;99.90;;;;;;5081462;28;20170;-65
2023/08/13 02:51:24;;;;;;;13.93;3.45;;;16.90;99.90;;;;;;5068570;28;20033;-65
2023/08/13 02:53:50;;;;;;;13.57;4.20;;;16.80;99.90;;;;;;5081158;28;20080;-65
2023/08/13 02:56:16;;;;;;;11.73;3.47;;;16.80;99.90;;;;;;5071394;28;20115;-65
2023/08/13 02:58:41;;;;;;;11.88;3.30;;;16.80;99.90;;;;;;5078361;28;20037;-65
2023/08/13 03:01:08;;;;;;;9.73;3.30;;;16.80;99.90;;;;;;5055965;28;20036;-65
2023/08/13 03:03:34;;;;;;;9.98;3.33;;;16.70;99.90;;;;;;5067207;28;20040;-65
2023/08/13 03:06:00;;;;;;;11.52;3.22;;;16.70;99.90;;;;;;5079429;28;20036;-65
2023/08/13 03:08:25;;;;;;;11.43;3.20;;;16.70;99.90;;;;;;5065895;28;20036;-65
2023/08/13 03:10:51;;;;;;;9.10;3.10;;;16.70;99.90;;;;;;5074770;28;20502;-65
2023/08/13 03:13:16;;;;;;;10.73;3.17;;;16.60;99.90;;;;;;5085072;28;20040;-65
2023/08/13 03:15:43;;;;;;;14.48;3.58;;;16.60;99.90;;;;;;5092366;28;20118;-65
2023/08/13 03:18:08;;;;;;;10.95;3.35;;;16.60;99.90;;;;;;5067823;28;20076;-65
2023/08/13 03:20:34;;;;;;;12.82;3.75;;;16.60;99.90;;;;;;5065396;28;20068;-65
2023/08/13 03:23:00;;;;;;;9.23;3.50;;;16.60;99.90;;;;;;5079688;28;20033;-65
2023/08/13 03:25:26;;;;;;;11.70;3.55;;;16.60;99.90;;;;;;5064863;28;20035;-65
2023/08/13 03:27:51;;;;;;;9.10;3.08;;;16.50;99.90;;;;;;5064983;28;20040;-65
2023/08/13 03:30:17;;;;;;;9.93;3.40;;;16.50;99.90;;;;;;5084769;28;20397;-66
2023/08/13 03:32:43;;;;;;;8.32;3.30;;;16.50;99.90;;;;;;5092661;28;20063;-65
2023/08/13 03:35:08;;;;;;;12.77;3.40;;;16.50;99.90;;;;;;5079849;28;20048;-65
2023/08/13 03:37:34;;;;;;;13.70;3.58;;;16.50;99.90;;;;;;5071619;28;20394;-65
2023/08/13 03:40:00;;;;;;;15.20;3.75;;;16.50;99.90;;;;;;5076140;28;20032;-65
2023/08/13 03:42:26;;;;;;;7.07;3.13;;;16.40;99.90;;;;;;5071765;28;20047;-65
2023/08/13 03:44:52;;;;;;;12.73;3.63;;;16.40;99.90;;;;;;5071665;28;20044;-65
2023/08/13 03:47:17;;;;;;;12.00;3.53;;;16.50;99.90;;;;;;5074887;28;20023;-65
2023/08/13 03:49:43;;;;;;;9.98;3.35;;;16.40;99.90;;;;;;5080679;28;20036;-65
2023/08/13 03:52:11;;;;;;;8.73;3.33;;;16.40;99.90;;;;;;5057394;28;20056;-65
2023/08/13 03:54:37;;;;;;;10.05;3.83;;;16.40;99.90;;;;;;5076644;28;20039;-65
2023/08/13 03:57:02;;;;;;;11.85;3.65;;;16.40;99.90;;;;;;5062963;28;20062;-65
2023/08/13 03:59:28;;;;;;;11.00;3.33;;;16.30;99.90;;;;;;5075741;28;20036;-65
2023/08/13 04:01:54;;;;;;;12.25;3.42;;;16.30;99.90;;;;;;5070534;28;20083;-65
2023/08/13 04:04:19;;;;;;;14.40;3.45;;;16.30;99.90;;;;;;5077298;28;20036;-65
2023/08/13 04:06:45;;;;;;;11.65;3.35;;;16.30;99.90;;;;;;5078631;28;20035;-65
2023/08/13 04:09:11;;;;;;;9.18;3.20;;;16.20;99.90;;;;;;5061845;28;20089;-65
2023/08/13 04:11:37;;;;;;;9.07;2.83;;;16.20;99.90;;;;;;5066021;28;20120;-66
2023/08/13 04:14:03;;;;;;;10.15;3.42;;;16.20;99.90;;;;;;5071234;28;20040;-65
2023/08/13 04:16:28;;;;;;;12.57;3.72;;;16.20;99.90;;;;;;5070520;28;20041;-65
2023/08/13 04:18:54;;;;;;;9.73;3.60;;;16.20;99.90;;;;;;5063241;28;20040;-65
2023/08/13 04:21:19;;;;;;;10.63;3.90;;;16.20;99.90;;;;;;5063910;28;20048;-65
2023/08/13 04:23:45;;;;;;;12.10;3.53;;;16.20;99.90;;;;;;5065796;28;20029;-65
2023/08/13 04:26:11;;;;;;;10.50;3.50;;;16.10;99.90;;;;;;5055063;28;20041;-65
2023/08/13 04:28:36;;;;;;;10.30;3.10;;;16.10;99.90;;;;;;5067614;28;20082;-65
2023/08/13 04:31:02;;;;;;;13.00;3.42;;;16.10;99.90;;;;;;5070785;28;20045;-65
2023/08/13 04:33:28;;;;;;;9.93;3.38;;;16.10;99.90;;;;;;5078927;28;20040;-65
2023/08/13 04:35:54;;;;;;;18.33;4.18;;;16.20;99.90;;;;;;5088452;28;20032;-65
2023/08/13 04:38:21;;;;;;;9.40;3.58;;;16.10;99.90;;;;;;5075143;28;20067;-66
2023/08/13 04:40:47;;;;;;;8.93;3.30;;;16.10;99.90;;;;;;5063889;28;20036;-66
2023/08/13 04:43:14;;;;;;;8.55;3.08;;;16.10;99.90;;;;;;5070385;28;20040;-66
2023/08/13 04:45:40;;;;;;;9.25;3.67;;;16.10;99.90;;;;;;5062738;28;20033;-66
2023/08/13 04:48:06;;;;;;;11.75;3.78;;;16.10;99.90;;;;;;5062386;28;20066;-67
2023/08/13 04:50:32;;;;;;;6.72;3.05;;;16.10;99.90;;;;;;5066523;28;20033;-67
2023/08/13 04:52:58;;;;;;;13.43;4.00;;;16.10;99.90;;;;;;5069181;28;20063;-67
2023/08/13 04:55:23;;;;;;;11.25;3.92;;;16.10;99.90;;;;;;5075500;28;20442;-67
2023/08/13 04:57:49;;;;;;;12.55;3.80;;;16.20;99.90;;;;;;5055567;28;20106;-67
2023/08/13 05:00:15;;;;;;;15.02;3.65;;;16.20;99.90;;;;;;5057839;28;20060;-67
2023/08/13 05:02:41;;;;;;;13.60;3.85;;;16.20;99.90;;;;;;5057882;28;20036;-67
2023/08/13 05:05:07;;;;;;;12.43;4.32;;;16.30;99.90;;;;;;5055569;28;20036;-67
2023/08/13 05:07:32;;;;;;;10.50;3.70;;;16.30;99.90;;;;;;5057200;28;20028;-67
2023/08/13 05:09:58;;;;;;;14.43;3.83;;;16.30;99.90;;;;;;5053762;28;20171;-67
2023/08/13 05:12:23;;;;;;;12.45;4.28;;;16.30;99.90;;;;;;5063107;28;20033;-67
2023/08/13 05:14:49;;;;;;;12.13;3.70;;;16.30;99.90;;;;;;5073992;28;20089;-67
2023/08/13 05:17:19;;;;;;;10.98;3.05;;;16.40;99.90;;;;;;5074640;28;20525;-67
2023/08/13 05:19:46;;;;;;;8.40;3.72;;;16.40;99.90;;;;;;5074476;28;20036;-67
2023/08/13 05:22:11;;;;;;;10.07;3.55;;;16.50;99.90;;;;;;5066812;28;20612;-67
2023/08/13 05:24:37;;;;;;;16.80;3.90;;;16.50;99.90;;;;;;5089853;28;20039;-67
2023/08/13 05:27:03;;;;;;;16.05;3.83;;;16.50;99.90;;;;;;5084558;28;20111;-67
2023/08/13 05:29:29;;;;;;;8.35;3.70;;;16.50;99.90;;;;;;5071852;28;20546;-67
2023/08/13 05:31:54;;;;;;;13.63;3.50;;;16.50;99.90;;;;;;5074054;28;20448;-67
2023/08/13 05:34:20;;;;;;;13.93;4.13;;;16.50;99.90;;;;;;5073477;28;20032;-67
2023/08/13 05:36:46;;;;;;;10.07;3.53;;;16.40;99.90;;;;;;5068085;28;20028;-67
2023/08/13 05:39:11;;;;;;;10.43;3.53;;;16.50;99.90;;;;;;5080638;28;20086;-67
2023/08/13 05:41:37;;;;;;;12.27;3.67;;;16.50;99.90;;;;;;5074812;28;20024;-68
2023/08/13 05:44:03;;;;;;;9.02;3.60;;;16.60;99.90;;;;;;5073048;28;20508;-67
2023/08/13 05:46:28;;;;;;;10.40;3.45;;;16.60;99.90;;;;;;5062167;28;20036;-67
2023/08/13 05:48:54;;;;;;;13.00;4.00;;;16.60;99.90;;;;;;5065404;28;20043;-67
2023/08/13 05:51:20;;;;;;;13.35;3.45;;;16.60;99.90;;;;;;5071096;28;20512;-67
2023/08/13 05:53:46;;;;;;;9.18;3.47;;;16.70;99.90;;;;;;5080717;28;20031;-67
2023/08/13 05:56:11;;;;;;;8.20;3.50;;;16.70;99.90;;;;;;5092304;28;20043;-67
2023/08/13 05:58:37;;;;;;;9.02;3.33;;;16.80;99.90;;;;;;5075372;28;20101;-67
2023/08/13 06:01:03;;;;;;;12.20;4.32;;;16.80;99.90;;;;;;5065111;28;20048;-67
2023/08/13 06:03:29;;;;;;;12.48;3.67;;;16.90;99.90;;;;;;5070143;28;20748;-67
2023/08/13 06:05:55;;;;;;;10.18;3.65;;;16.90;99.90;;;;;;5073172;28;20116;-67
2023/08/13 06:08:21;;;;;;;9.93;3.90;;;17.00;99.90;;;;;;5073663;28;20040;-66
2023/08/13 06:10:46;;;;;;;11.32;4.18;;;17.10;99.90;;;;;;5069898;28;20029;-67
2023/08/13 06:13:12;;;;;;;11.75;3.83;;;17.10;99.90;;;;;;5082217;28;20044;-67
2023/08/13 06:15:38;;;;;;;11.50;3.97;;;17.10;99.90;;;;;;5073604;28;20043;-67
2023/08/13 06:18:04;;;;;;;15.02;3.90;;;17.10;99.90;;;;;;5068837;28;20028;-67
2023/08/13 06:20:31;;;;;;;8.98;3.45;;;17.20;99.90;;;;;;5072622;28;20166;-67
2023/08/13 06:22:57;;;;;;;8.95;3.50;;;17.20;99.90;;;;;;5076770;28;20047;-67
2023/08/13 06:25:23;;;;;;;12.15;3.83;;;17.40;99.90;;;;;;5084037;28;20043;-67
2023/08/13 06:27:48;;;;;;;12.32;3.47;;;17.50;99.90;;;;;;5092313;22;20017;-67
2023/08/13 06:30:14;;;;;;;12.02;3.50;;;17.60;99.90;;;;;;5070671;28;20085;-67
2023/08/13 06:32:40;;;;;;;11.55;4.22;;;17.70;99.90;;;;;;5073141;28;20037;-66
2023/08/13 06:35:06;;;;;;;14.02;4.25;;;17.70;99.90;;;;;;5071374;28;20037;-66
2023/08/13 06:37:31;;;;;;;11.95;3.60;;;17.80;99.90;;;;;;5080127;22;20052;-67
2023/08/13 06:39:57;;;;;;;13.13;3.63;;;17.90;99.90;;;;;;5053430;28;20521;-66
2023/08/13 06:42:23;;;;;;;11.73;4.00;;;17.90;99.90;;;;;;5055195;28;20036;-66
2023/08/13 06:44:49;;;;;;;13.32;3.53;;;18.00;99.90;;;;;;5054148;28;20040;-67
2023/08/13 06:47:14;;;;;;;12.90;3.90;;;18.10;99.90;;;;;;5068429;28;20028;-66
2023/08/13 06:49:40;;;;;;;11.48;3.78;;;18.20;99.90;;;;;;5052066;28;20032;-66
2023/08/13 06:52:06;;;;;;;11.82;3.47;;;18.30;99.90;;;;;;5051294;28;20086;-66
2023/08/13 06:54:32;;;;;;;13.63;3.83;;;18.30;99.90;;;;;;5050663;28;20078;-67
2023/08/13 06:56:58;;;;;;;12.65;3.22;;;18.40;99.90;;;;;;5050397;28;20545;-66
2023/08/13 06:59:24;;;;;;;11.88;3.85;;;18.40;99.90;;;;;;5055654;28;20037;-66
2023/08/13 07:01:50;;;;;;;13.02;4.43;;;18.50;99.90;;;;;;5048389;28;20451;-66
2023/08/13 07:04:16;;;;;;;15.32;4.30;;;18.70;99.90;;;;;;5051133;28;20072;-66
2023/08/13 07:06:42;;;;;;;10.18;3.70;;;18.80;99.90;;;;;;5050492;28;20037;-66
2023/08/13 07:09:07;;;;;;;10.48;3.80;;;18.80;99.90;;;;;;5049501;28;20527;-66
2023/08/13 07:11:34;;;;;;;12.57;3.60;;;18.80;99.90;;;;;;5051586;28;20033;-66
2023/08/13 07:14:03;;;;;;;10.00;3.70;;;18.90;99.90;;;;;;5049220;28;20056;-66
2023/08/13 07:16:29;;;;;;;14.10;4.18;;;19.00;99.90;;;;;;5051470;28;20441;-66
2023/08/13 07:18:54;;;;;;;14.77;3.80;;;19.10;99.90;;;;;;5038512;28;20049;-66
2023/08/13 07:21:20;;;;;;;9.98;3.20;;;19.20;99.90;;;;;;5050570;28;20029;-67
2023/08/13 07:23:45;;;;;;;9.60;4.32;;;19.30;99.90;;;;;;5049321;28;20094;-67
2023/08/13 07:26:11;;;;;;;12.73;4.40;;;19.30;99.90;;;;;;5056025;28;20034;-67
2023/08/13 07:28:39;;;;;;;10.10;3.70;;;19.30;99.90;;;;;;5049092;28;20040;-66
2023/08/13 07:31:06;;;;;;;8.15;3.20;;;19.40;99.90;;;;;;5051319;28;20045;-66
2023/08/13 07:33:32;;;;;;;10.13;3.35;;;19.60;99.90;;;;;;5050599;28;20091;-67
2023/08/13 07:36:01;;;;;;;9.70;3.80;;;19.70;99.90;;;;;;5050792;28;20120;-66
2023/08/13 07:38:27;;;;;;;10.45;3.55;;;19.70;99.90;;;;;;5045753;28;20037;-67
2023/08/13 07:40:55;;;;;;;9.77;3.28;;;19.70;99.90;;;;;;5049026;28;20033;-67
2023/08/13 07:43:21;;;;;;;12.02;3.60;;;19.80;99.90;;;;;;5033403;28;20028;-66
2023/08/13 07:45:47;;;;;;;11.68;3.40;;;19.90;99.90;;;;;;5043101;28;20064;-67
2023/08/13 07:48:12;;;;;;;8.73;4.00;;;20.00;99.90;;;;;;5037328;28;20032;-66
2023/08/13 07:50:39;;;;;;;8.57;2.80;;;20.00;99.90;;;;;;5050971;28;20506;-67
2023/08/13 07:53:06;;;;;;;10.77;3.38;;;19.90;99.90;;;;;;5042867;28;20037;-67
2023/08/13 07:55:31;;;;;;;14.15;3.10;;;19.90;99.90;;;;;;5051303;28;20040;-66
2023/08/13 07:58:14;;;;;;;8.95;3.30;;;20.00;99.90;;;;;;5048801;28;20033;-66
2023/08/13 08:00:40;;;;;;;11.43;3.90;;;20.10;99.90;;;;;;5049564;28;20091;-67
2023/08/13 08:03:05;;;;;;;7.00;2.92;;;20.20;99.90;;;;;;5050983;28;20033;-67
2023/08/13 08:05:31;;;;;;;10.95;2.88;;;20.30;99.90;;;;;;5044457;28;20033;-67
2023/08/13 08:07:56;;;;;;;12.88;3.28;;;20.50;99.90;;;;;;5048048;28;20031;-67
2023/08/13 08:10:23;;;;;;;14.05;3.42;;;20.70;99.90;;;;;;5049826;28;20120;-67
2023/08/13 08:12:49;;;;;;;11.93;3.28;;;20.80;99.90;;;;;;5051346;28;20052;-67
2023/08/13 08:15:15;;;;;;;8.90;3.00;;;20.80;99.90;;;;;;5051661;28;20043;-67
2023/08/13 08:17:40;;;;;;;9.27;3.70;;;20.80;99.90;;;;;;5045911;28;20049;-67
2023/08/13 08:20:07;;;;;;;9.10;2.97;;;20.90;99.90;;;;;;5051026;28;20044;-67
2023/08/13 08:22:33;;;;;;;8.45;2.58;;;20.90;99.90;;;;;;5034024;28;20052;-67
2023/08/13 08:24:58;;;;;;;7.03;2.88;;;21.00;99.90;;;;;;5056579;28;20029;-67
2023/08/13 08:27:24;;;;;;;8.43;3.03;;;21.10;99.90;;;;;;5047681;28;20067;-67
2023/08/13 08:29:50;;;;;;;7.20;2.42;;;21.20;99.90;;;;;;5037097;28;20037;-67
2023/08/13 08:32:15;;;;;;;8.98;2.92;;;21.40;99.90;;;;;;5032072;28;20146;-67
2023/08/13 08:34:41;;;;;;;11.48;2.72;;;21.50;99.90;;;;;;5049507;28;20032;-67
2023/08/13 08:37:10;;;;;;;12.23;3.00;;;21.50;99.90;;;;;;5045982;28;20048;-67
2023/08/13 08:39:35;;;;;;;10.00;3.10;;;21.60;99.90;;;;;;5043795;28;20045;-67
2023/08/13 08:42:01;;;;;;;10.50;2.67;;;21.70;99.90;;;;;;5052291;28;20033;-67
2023/08/13 08:44:29;;;;;;;8.70;2.70;;;21.80;99.90;;;;;;5045831;28;20041;-68
2023/08/13 08:46:57;;;;;;;8.68;2.63;;;21.90;99.90;;;;;;5043927;28;20048;-67
2023/08/13 08:49:24;;;;;;;11.18;2.67;;;22.00;99.90;;;;;;5044958;28;20063;-66
2023/08/13 08:51:50;;;;;;;7.07;2.58;;;22.10;99.90;;;;;;5050025;28;20064;-67
2023/08/13 08:54:17;;;;;;;7.53;2.30;;;22.20;99.90;;;;;;5044351;28;20041;-67
2023/08/13 08:56:43;;;;;;;9.07;2.60;;;22.20;99.90;;;;;;5051167;28;20041;-67
2023/08/13 08:59:09;;;;;;;5.63;2.25;;;22.20;99.90;;;;;;5050574;28;20048;-68
2023/08/13 09:01:35;;;;;;;8.43;2.47;;;22.20;99.90;;;;;;5052735;28;20029;-67
2023/08/13 09:07:27;;;;;;;7.57;2.50;;;22.20;99.90;;;;;;5049140;28;20082;-67
2023/08/13 09:09:53;;;;;;;7.97;2.50;;;22.30;99.90;;;;;;5051188;28;20033;-67
2023/08/13 09:12:19;;;;;;;7.70;2.22;;;22.40;99.90;;;;;;5050375;28;20101;-68
2023/08/13 09:14:45;;;;;;;8.15;2.47;;;22.40;99.90;;;;;;5037538;28;20503;-68
2023/08/13 09:17:11;;;;;;;6.85;2.40;;;22.50;99.90;;;;;;5050995;28;20044;-68
2023/08/13 09:19:37;;;;;;;10.30;2.42;;;22.60;99.90;;;;;;5052919;28;20133;-68
2023/08/13 09:22:03;;;;;;;6.65;2.17;;;22.70;99.90;;;;;;5054996;28;20062;-68
2023/08/13 09:24:33;;;;;;;5.85;2.03;;;22.80;99.90;;;;;;5054936;28;20039;-67
2023/08/13 09:27:00;;;;;;;8.65;1.83;;;22.80;99.90;;;;;;5046192;28;20060;-67
2023/08/13 09:29:30;;;;;;;9.80;2.58;;;22.80;99.90;;;;;;5032437;28;20041;-67
2023/08/13 09:31:59;;;;;;;7.07;1.92;;;22.90;99.90;;;;;;5034973;28;20033;-68
2023/08/13 09:34:26;;;;;;;3.92;1.58;;;23.00;99.90;;;;;;5041930;28;20411;-68
2023/08/13 09:36:53;;;;;;;6.18;2.00;;;23.00;99.90;;;;;;5033971;28;20049;-68
2023/08/13 09:39:22;;;;;;;7.00;1.48;;;23.00;99.90;;;;;;5034952;28;20517;-68
2023/08/13 09:41:49;;;;;;;7.35;2.08;;;23.00;99.90;;;;;;5048651;28;20041;-67
2023/08/13 09:44:17;;;;;;;5.68;2.28;;;23.10;99.90;;;;;;5033625;28;20491;-68
2023/08/13 09:46:47;;;;;;;6.80;1.77;;;23.20;99.90;;;;;;5044628;28;20037;-67
2023/08/13 09:49:14;;;;;;;5.00;2.03;;;23.20;99.90;;;;;;5032704;28;20044;-68
2023/08/13 09:51:43;;;;;;;5.30;1.60;;;23.20;99.90;;;;;;5043967;28;20040;-68
2023/08/13 09:54:14;;;;;;;4.75;1.42;;;23.30;99.90;;;;;;5035575;28;20461;-67
2023/08/13 09:56:48;;;;;;;5.07;2.13;;;23.40;99.90;;;;;;5042607;28;20049;-67
2023/08/13 09:59:15;;;;;;;3.30;1.15;;;23.50;99.90;;;;;;5046039;28;20037;-68
2023/08/13 10:01:41;;;;;;;4.22;1.58;;;23.50;99.90;;;;;;5047747;28;20045;-68
2023/08/13 10:04:08;;;;;;;3.50;1.10;;;23.50;99.90;;;;;;5053620;28;20437;-68
2023/08/13 10:06:35;;;;;;;7.15;1.73;;;23.50;99.90;;;;;;5051309;28;20037;-68
2023/08/13 10:09:01;;;;;;;5.93;1.30;;;23.60;99.90;;;;;;5050630;28;20048;-68
2023/08/13 10:11:27;;;;;;;4.93;1.02;;;23.60;99.90;;;;;;5049887;28;20495;-68
2023/08/13 10:13:52;;;;;;;4.10;1.50;;;23.80;99.90;;;;;;5042105;28;20050;-68
2023/08/13 10:16:19;;;;;;;6.43;1.40;;;23.80;99.90;;;;;;5050996;28;20065;-67
2023/08/13 10:18:46;;;;;;;1.70;1.30;;;23.80;99.90;;;;;;5059119;28;20052;-68
2023/08/13 10:21:13;;;;;;;3.90;1.00;;;23.90;99.90;;;;;;5048194;28;20033;-68
2023/08/13 10:23:40;;;;;;;6.80;1.10;;;23.90;99.90;;;;;;5050767;28;20110;-68
2023/08/13 10:26:07;;;;;;;2.67;1.02;;;24.00;99.90;;;;;;5050190;28;20033;-68
2023/08/13 10:28:33;;;;;;;3.90;0.82;;;23.80;99.90;;;;;;5051809;28;20116;-68
2023/08/13 10:31:21;;;;;;;4.82;1.30;;;23.60;99.90;;;;;;5035208;28;20532;-68
2023/08/13 10:33:46;;;;;;;5.13;1.10;;;23.50;99.90;;;;;;5030779;28;20505;-68
2023/08/13 10:36:12;;;;;;;2.97;1.00;;;23.20;99.90;;;;;;5039221;28;20033;-68
2023/08/13 10:38:38;;;;;;;3.15;1.27;;;23.10;99.90;;;;;;5052511;28;20051;-68
2023/08/13 10:41:06;;;;;;;4.75;1.30;;;23.10;99.90;;;;;;5053321;28;20080;-68
2023/08/13 10:43:33;;;;;;;2.42;1.02;;;23.10;99.90;;;;;;5048299;28;20075;-68
2023/08/13 10:46:03;;;;;;;4.03;1.00;;;23.20;99.90;;;;;;5047097;28;20036;-68
2023/08/13 10:48:30;;;;;;;4.57;1.17;;;23.20;99.90;;;;;;5046911;28;20041;-68
2023/08/13 10:50:57;;;;;;;4.25;1.17;;;23.10;99.90;;;;;;5032042;28;20044;-68
2023/08/13 10:53:26;;;;;;;2.25;0.90;;;23.10;99.90;;;;;;5051222;28;20036;-68
2023/08/13 10:55:59;;;;;;;3.25;0.90;;;23.00;99.90;;;;;;5052364;28;20449;-68
2023/08/13 10:58:29;;;;;;;3.60;1.23;;;23.00;99.90;;;;;;5052772;28;20052;-68
2023/08/13 11:01:11;;;;;;;2.40;0.85;;;23.10;99.90;;;;;;5050260;28;20029;-68
2023/08/13 11:03:55;;;;;;;2.53;1.00;;;23.20;99.90;;;;;;5040623;28;20091;-68
2023/08/13 11:06:22;;;;;;;2.00;0.90;;;23.40;99.90;;;;;;5045320;28;20493;-68
2023/08/13 11:08:49;;;;;;;3.65;1.10;;;23.40;99.90;;;;;;5045210;28;20438;-67
2023/08/13 11:11:16;;;;;;;3.60;0.90;;;23.30;99.90;;;;;;5050648;28;20075;-68
2023/08/13 11:13:42;;;;;;;2.92;0.98;;;23.30;99.90;;;;;;5037425;28;20095;-68
2023/08/13 11:16:07;;;;;;;2.17;0.90;;;23.20;99.90;;;;;;5049208;28;20483;-68
2023/08/13 11:18:33;;;;;;;4.72;0.95;;;23.20;99.90;;;;;;5050743;28;20040;-68
2023/08/13 11:21:00;;;;;;;3.13;1.10;;;23.20;99.90;;;;;;5043463;28;20041;-67
2023/08/13 11:23:26;;;;;;;3.45;1.25;;;23.20;99.90;;;;;;5051512;28;20033;-68
2023/08/13 11:25:52;;;;;;;3.25;0.70;;;23.20;99.90;;;;;;5056196;28;20553;-68
2023/08/13 11:28:22;;;;;;;4.03;0.80;;;23.10;99.90;;;;;;5018100;28;20029;-67
2023/08/13 11:30:50;;;;;;;2.72;0.88;;;23.00;99.90;;;;;;5048811;28;20041;-68
2023/08/13 11:33:15;;;;;;;4.20;1.08;;;22.80;99.90;;;;;;5047591;28;20055;-67
2023/08/13 11:35:41;;;;;;;3.92;0.88;;;22.70;99.90;;;;;;5052081;28;20025;-67
2023/08/13 11:38:07;;;;;;;3.10;1.00;;;22.60;99.90;;;;;;5050017;28;20064;-66
2023/08/13 11:40:33;;;;;;;4.88;1.20;;;22.60;99.90;;;;;;5047954;28;20415;-68
2023/08/13 11:43:00;;;;;;;4.68;1.00;;;22.60;99.90;;;;;;5038560;28;20420;-67
2023/08/13 11:45:29;;;;;;;4.28;1.10;;;22.70;99.90;;;;;;5048150;28;20399;-70
2023/08/13 11:48:07;;;;;;;2.92;1.20;;;22.80;99.90;;;;;;5049693;28;20040;-67
2023/08/13 11:50:33;;;;;;;5.75;1.17;;;22.90;99.90;;;;;;5043241;28;20045;-68
2023/08/13 11:53:09;;;;;;;4.18;1.30;;;23.00;99.90;;;;;;5050992;28;20498;-67
2023/08/13 11:55:37;;;;;;;6.32;1.45;;;23.00;99.90;;;;;;5037423;28;20540;-69
2023/08/13 11:58:04;;;;;;;5.28;1.40;;;23.10;99.90;;;;;;5038332;28;20041;-69
2023/08/13 12:00:30;;;;;;;5.00;1.75;;;23.10;99.90;;;;;;5020993;28;20038;-68
2023/08/13 12:02:57;;;;;;;3.75;1.30;;;23.10;99.90;;;;;;5029643;28;20041;-68
2023/08/13 12:05:30;;;;;;;5.40;1.20;;;23.20;99.90;;;;;;5043462;28;20040;-68
2023/08/13 12:07:57;;;;;;;5.18;1.60;;;23.10;99.90;;;;;;5042710;28;20044;-68
2023/08/13 12:10:23;;;;;;;6.18;1.48;;;23.00;99.90;;;;;;5051768;28;20116;-67
2023/08/13 12:12:48;;;;;;;5.18;1.63;;;23.00;99.90;;;;;;5050526;28;20119;-67
2023/08/13 12:15:14;;;;;;;5.65;1.90;;;23.00;99.90;;;;;;5051416;28;20076;-68
2023/08/13 12:17:40;;;;;;;5.38;1.60;;;22.90;99.90;;;;;;5048902;28;20110;-67
2023/08/13 12:20:07;;;;;;;4.40;1.70;;;22.80;99.90;;;;;;5045657;28;20090;-67
2023/08/13 12:22:32;;;;;;;5.45;1.50;;;22.70;99.90;;;;;;5038753;28;20040;-67
2023/08/13 12:24:58;;;;;;;5.10;2.00;;;22.60;99.90;;;;;;5047081;28;20025;-66
2023/08/13 12:27:23;;;;;;;5.57;1.58;;;22.60;99.90;;;;;;5051615;28;20033;-67
2023/08/13 12:29:49;;;;;;;8.18;2.47;;;22.50;99.90;;;;;;5097378;22;20097;-68
2023/08/13 12:32:14;;;;;;;5.72;1.70;;;22.50;99.90;;;;;;5090828;28;20513;-66
2023/08/13 12:34:40;;;;;;;8.25;1.85;;;22.50;99.90;;;;;;5088425;28;20042;-66
2023/08/13 12:37:06;;;;;;;6.22;1.90;;;22.50;99.90;;;;;;5091303;28;20042;-66
2023/08/13 12:39:31;;;;;;;6.38;2.03;;;22.50;99.90;;;;;;5090663;28;20550;-67
2023/08/13 12:41:57;;;;;;;7.90;2.42;;;22.50;99.90;;;;;;5091414;28;20468;-66
2023/08/13 12:44:23;;;;;;;7.75;2.20;;;22.60;99.90;;;;;;5091134;28;20036;-66